Time;durP1;ratioP1;P1;durP2;ratioP2;P2;SDS_P1;SDS_P2;PMS_P1;PMS_P2;Temp;Humidity;BMP_temperature;BMP_pressure;BME280_temperature;BME280_humidity;BME280_pressure;Samples;Min_cycle;Max_cycle;Signal;HPM_P1;HPM_P2
2024/01/16 00:01:14;;;;;;;1.90;0.75;;;9.20;79.20;;;;;;5035032;28;20120;-69
2024/01/16 00:03:39;;;;;;;4.20;1.30;;;9.20;79.20;;;;;;5030719;28;20420;-69
2024/01/16 00:06:06;;;;;;;2.55;0.90;;;9.20;79.90;;;;;;5027948;28;20129;-69
2024/01/16 00:08:32;;;;;;;2.42;1.02;;;9.20;79.20;;;;;;5030501;28;20068;-69
2024/01/16 00:10:58;;;;;;;3.60;1.00;;;9.20;79.20;;;;;;5030255;28;20386;-69
2024/01/16 00:13:23;;;;;;;3.10;1.10;;;9.20;79.10;;;;;;5040907;28;20040;-69
2024/01/16 00:15:49;;;;;;;3.40;1.48;;;9.20;79.10;;;;;;5030960;28;20113;-69
2024/01/16 00:18:15;;;;;;;3.72;1.30;;;9.20;79.10;;;;;;5013831;28;20123;-70
2024/01/16 00:20:41;;;;;;;3.28;1.30;;;9.20;78.50;;;;;;5030686;28;20519;-69
2024/01/16 00:23:07;;;;;;;4.97;1.20;;;9.20;79.00;;;;;;5030248;28;20042;-69
2024/01/16 00:25:32;;;;;;;3.83;1.00;;;9.20;79.00;;;;;;5028766;28;20472;-69
2024/01/16 00:27:58;;;;;;;3.42;1.70;;;9.20;79.00;;;;;;5032853;28;20370;-69
2024/01/16 00:30:24;;;;;;;4.05;1.05;;;9.20;79.00;;;;;;5040060;28;20033;-69
2024/01/16 00:32:49;;;;;;;2.95;1.30;;;9.20;78.90;;;;;;5026528;28;20041;-69
2024/01/16 00:35:15;;;;;;;3.22;1.30;;;9.20;79.00;;;;;;5030230;28;20124;-69
2024/01/16 00:37:41;;;;;;;4.15;1.13;;;9.20;78.90;;;;;;5029914;28;20033;-69
2024/01/16 00:40:08;;;;;;;4.05;1.10;;;9.20;78.90;;;;;;5012968;28;20053;-69
2024/01/16 00:42:34;;;;;;;3.97;1.13;;;9.20;78.90;;;;;;5029374;28;20049;-69
2024/01/16 00:45:00;;;;;;;2.55;1.20;;;9.20;78.80;;;;;;5030370;28;20037;-69
2024/01/16 00:47:26;;;;;;;1.17;0.80;;;9.20;78.80;;;;;;5029244;28;20042;-69
2024/01/16 00:49:52;;;;;;;4.63;1.23;;;9.20;78.80;;;;;;5013787;28;20401;-69
2024/01/16 00:52:19;;;;;;;5.60;1.40;;;9.20;78.80;;;;;;5046608;28;20099;-69
2024/01/16 00:54:45;;;;;;;2.85;1.00;;;9.20;78.70;;;;;;5030527;28;20542;-69
2024/01/16 00:57:10;;;;;;;2.28;0.90;;;9.20;78.70;;;;;;5018206;28;20057;-69
2024/01/16 00:59:37;;;;;;;4.32;1.50;;;9.20;78.70;;;;;;5062235;28;20405;-69
2024/01/16 01:02:03;;;;;;;3.63;1.20;;;9.20;78.70;;;;;;5028782;28;20045;-69
2024/01/16 01:04:29;;;;;;;2.95;1.02;;;9.20;78.70;;;;;;5029147;28;20111;-69
2024/01/16 01:06:55;;;;;;;1.40;0.93;;;9.20;78.70;;;;;;5030700;28;20405;-69
2024/01/16 01:09:21;;;;;;;2.60;1.02;;;9.20;78.70;;;;;;5029683;28;20045;-69
2024/01/16 01:11:47;;;;;;;3.10;1.13;;;9.20;78.70;;;;;;5030159;28;20161;-69
2024/01/16 01:14:12;;;;;;;3.60;0.90;;;9.20;78.60;;;;;;5030307;28;20041;-69
2024/01/16 01:16:38;;;;;;;2.08;0.90;;;9.10;78.50;;;;;;5030887;28;20484;-69
2024/01/16 01:19:04;;;;;;;1.02;0.70;;;9.10;79.30;;;;;;5028547;28;20053;-69
2024/01/16 01:21:29;;;;;;;2.15;0.80;;;9.10;78.60;;;;;;5026590;28;20477;-69
2024/01/16 01:23:55;;;;;;;2.08;1.05;;;9.10;78.50;;;;;;5013698;28;20042;-69
2024/01/16 01:26:21;;;;;;;2.00;0.80;;;9.10;78.50;;;;;;5018599;28;20042;-69
2024/01/16 01:28:46;;;;;;;2.20;1.17;;;9.10;78.50;;;;;;5033715;28;20044;-69
2024/01/16 01:31:12;;;;;;;1.77;0.70;;;9.10;78.50;;;;;;5008652;28;20069;-69
2024/01/16 01:33:39;;;;;;;3.20;1.10;;;9.10;78.50;;;;;;5059695;28;20045;-69
2024/01/16 01:36:05;;;;;;;3.75;1.10;;;9.10;78.50;;;;;;5034036;28;20044;-69
2024/01/16 01:38:31;;;;;;;2.20;1.00;;;9.10;78.50;;;;;;5038242;28;20049;-69
2024/01/16 01:40:57;;;;;;;1.27;0.80;;;9.10;78.50;;;;;;5028709;28;20044;-69
2024/01/16 01:43:24;;;;;;;1.83;0.88;;;9.10;78.50;;;;;;5030110;28;20049;-69
2024/01/16 01:46:14;;;;;;;5.47;1.27;;;9.10;78.50;;;;;;5035078;28;20496;-69
2024/01/16 01:48:44;;;;;;;1.98;0.85;;;9.10;78.50;;;;;;5032043;28;20032;-69
2024/01/16 01:51:14;;;;;;;4.10;0.90;;;9.00;78.40;;;;;;5028228;28;20124;-69
2024/01/16 01:53:42;;;;;;;4.05;1.02;;;9.10;78.50;;;;;;5032598;28;20041;-69
2024/01/16 01:56:10;;;;;;;3.00;0.95;;;9.00;78.40;;;;;;5034911;28;20519;-69
2024/01/16 01:58:38;;;;;;;2.42;0.90;;;9.00;78.40;;;;;;5031179;28;20053;-69
2024/01/16 02:01:05;;;;;;;2.80;1.00;;;9.00;78.40;;;;;;5031002;28;20059;-69
2024/01/16 02:03:35;;;;;;;3.17;1.13;;;9.00;78.40;;;;;;5028715;28;20131;-69
2024/01/16 02:06:01;;;;;;;1.92;0.90;;;9.00;78.30;;;;;;5016886;28;20033;-69
2024/01/16 02:08:26;;;;;;;3.25;0.77;;;9.00;78.40;;;;;;5028269;28;20052;-69
2024/01/16 02:10:52;;;;;;;5.10;1.20;;;9.00;78.40;;;;;;5035632;28;20053;-69
2024/01/16 02:13:23;;;;;;;2.38;0.80;;;9.00;78.40;;;;;;5034693;28;20033;-69
2024/01/16 02:15:49;;;;;;;1.90;0.75;;;9.00;78.30;;;;;;5033552;28;20045;-69
2024/01/16 02:18:16;;;;;;;1.88;0.73;;;9.00;78.40;;;;;;5031682;28;20501;-69
2024/01/16 02:20:42;;;;;;;1.65;0.75;;;9.00;78.40;;;;;;5032427;28;20076;-70
2024/01/16 02:23:09;;;;;;;2.72;1.00;;;9.00;78.40;;;;;;5036502;28;20051;-69
2024/01/16 02:25:35;;;;;;;1.92;0.98;;;9.00;78.40;;;;;;5019848;28;20041;-69
2024/01/16 02:28:03;;;;;;;1.35;0.68;;;9.00;78.40;;;;;;5033666;28;20042;-69
2024/01/16 02:30:28;;;;;;;2.90;0.88;;;9.00;78.40;;;;;;5018795;28;20433;-70
2024/01/16 02:32:54;;;;;;;1.75;1.08;;;9.00;78.40;;;;;;5034340;28;20116;-69
2024/01/16 02:35:20;;;;;;;2.78;0.70;;;9.00;78.40;;;;;;5034470;28;20159;-70
2024/01/16 02:37:45;;;;;;;1.98;0.90;;;9.00;78.40;;;;;;5040766;28;20038;-70
2024/01/16 02:40:11;;;;;;;1.20;0.73;;;9.00;78.40;;;;;;5033322;28;20524;-70
2024/01/16 02:42:37;;;;;;;3.00;0.85;;;9.00;78.40;;;;;;5041071;28;20033;-70
2024/01/16 02:45:04;;;;;;;3.45;1.08;;;8.90;78.30;;;;;;5032978;28;20099;-70
2024/01/16 02:47:30;;;;;;;2.30;1.35;;;8.90;78.40;;;;;;5045228;28;20116;-70
2024/01/16 02:49:56;;;;;;;2.45;1.23;;;8.90;78.30;;;;;;5033526;28;20125;-70
2024/01/16 02:52:23;;;;;;;4.20;1.33;;;9.00;78.30;;;;;;5049371;28;20188;-69
2024/01/16 02:54:48;;;;;;;0.98;0.60;;;9.00;79.00;;;;;;5034905;28;20519;-70
2024/01/16 02:57:14;;;;;;;3.45;0.95;;;9.00;78.30;;;;;;5031812;28;20073;-70
2024/01/16 02:59:46;;;;;;;2.63;0.98;;;8.90;79.00;;;;;;5017831;28;20124;-70
2024/01/16 03:02:13;;;;;;;3.38;1.13;;;9.00;78.30;;;;;;5033609;28;20042;-70
2024/01/16 03:04:39;;;;;;;3.50;0.90;;;8.90;78.30;;;;;;5035535;28;20034;-70
2024/01/16 03:07:05;;;;;;;3.42;0.80;;;9.00;78.30;;;;;;5035446;28;20095;-70
2024/01/16 03:09:31;;;;;;;6.93;0.93;;;8.90;78.20;;;;;;5039613;28;20049;-70
2024/01/16 03:11:57;;;;;;;2.35;0.98;;;8.90;78.30;;;;;;5015122;28;20098;-69
2024/01/16 03:14:23;;;;;;;2.53;0.77;;;8.90;78.30;;;;;;5033261;28;20088;-70
2024/01/16 03:16:49;;;;;;;3.20;1.13;;;8.90;78.30;;;;;;5036335;28;20335;-70
2024/01/16 03:19:14;;;;;;;2.08;0.70;;;8.90;78.30;;;;;;5065080;28;20087;-70
2024/01/16 03:21:41;;;;;;;1.45;0.63;;;8.90;78.30;;;;;;5030974;28;20033;-70
2024/01/16 03:24:07;;;;;;;3.30;0.98;;;8.90;78.30;;;;;;5050161;28;20049;-70
2024/01/16 03:26:32;;;;;;;2.55;0.90;;;8.90;78.30;;;;;;5039800;28;20423;-70
2024/01/16 03:28:58;;;;;;;2.58;0.93;;;8.90;79.00;;;;;;5041161;28;20052;-69
2024/01/16 03:31:24;;;;;;;2.00;0.98;;;8.90;78.30;;;;;;5036767;28;20032;-70
2024/01/16 03:33:50;;;;;;;3.72;1.13;;;8.90;78.30;;;;;;5015024;28;20038;-69
2024/01/16 03:36:16;;;;;;;2.60;1.33;;;8.90;78.30;;;;;;5031651;28;20062;-69
2024/01/16 03:38:45;;;;;;;5.03;0.80;;;8.90;78.30;;;;;;5038555;28;20046;-69
2024/01/16 03:41:11;;;;;;;3.03;0.93;;;8.90;78.30;;;;;;5054601;28;20048;-70
2024/01/16 03:43:36;;;;;;;3.55;0.80;;;8.90;78.30;;;;;;5037910;28;20041;-70
2024/01/16 03:46:02;;;;;;;2.55;1.13;;;8.80;78.20;;;;;;5031026;28;20068;-69
2024/01/16 03:48:28;;;;;;;3.30;1.35;;;8.80;78.20;;;;;;5028214;28;20401;-70
2024/01/16 03:50:55;;;;;;;2.38;0.60;;;8.80;78.10;;;;;;5027058;28;20041;-69
2024/01/16 03:53:21;;;;;;;4.18;0.93;;;8.80;78.20;;;;;;5029184;28;20052;-69
2024/01/16 03:55:47;;;;;;;2.35;0.80;;;8.80;78.10;;;;;;5039030;28;20041;-69
2024/01/16 03:58:13;;;;;;;2.17;0.90;;;8.80;78.10;;;;;;5036533;28;20041;-70
2024/01/16 04:00:39;;;;;;;3.15;0.85;;;8.80;78.10;;;;;;5040996;28;20041;-69
2024/01/16 04:03:07;;;;;;;2.05;0.90;;;8.80;78.20;;;;;;5040791;28;20044;-70
2024/01/16 04:05:32;;;;;;;2.33;0.90;;;8.80;78.20;;;;;;5034782;28;20041;-69
2024/01/16 04:07:58;;;;;;;2.20;0.80;;;8.80;78.10;;;;;;5037575;28;20183;-69
2024/01/16 04:10:24;;;;;;;2.78;0.82;;;8.80;78.20;;;;;;5038227;28;20053;-70
2024/01/16 04:12:49;;;;;;;4.57;0.98;;;8.80;78.10;;;;;;5029757;28;20041;-69
2024/01/16 04:15:15;;;;;;;3.83;0.77;;;8.80;78.20;;;;;;5030461;28;20065;-69
2024/01/16 04:17:41;;;;;;;2.80;0.98;;;8.80;78.20;;;;;;5036243;28;20037;-69
2024/01/16 04:20:07;;;;;;;3.85;1.02;;;8.80;78.20;;;;;;5039844;28;20029;-69
2024/01/16 04:22:33;;;;;;;3.08;0.85;;;8.80;78.10;;;;;;5030342;28;20041;-69
2024/01/16 04:24:58;;;;;;;3.85;0.88;;;8.80;78.20;;;;;;5029056;28;20049;-69
2024/01/16 04:27:25;;;;;;;4.30;0.98;;;8.80;78.20;;;;;;5037026;28;20436;-69
2024/01/16 04:29:51;;;;;;;2.30;1.00;;;8.80;78.20;;;;;;5043509;28;20166;-69
2024/01/16 04:32:17;;;;;;;4.40;1.10;;;8.80;78.10;;;;;;5030277;28;20120;-69
2024/01/16 04:34:42;;;;;;;3.83;0.95;;;8.80;78.10;;;;;;5041024;28;20047;-69
2024/01/16 04:37:08;;;;;;;1.88;0.77;;;8.70;78.10;;;;;;5015291;28;20037;-69
2024/01/16 04:39:34;;;;;;;2.75;0.70;;;8.80;78.10;;;;;;5044436;28;20043;-69
2024/01/16 04:41:59;;;;;;;3.25;1.00;;;8.80;78.20;;;;;;5036104;28;20041;-69
2024/01/16 04:44:25;;;;;;;3.65;0.90;;;8.80;78.10;;;;;;5031866;28;20428;-69
2024/01/16 04:46:50;;;;;;;2.60;0.93;;;8.80;78.10;;;;;;5029537;28;20045;-69
2024/01/16 04:49:16;;;;;;;1.98;1.00;;;8.80;78.20;;;;;;5031988;28;20033;-69
2024/01/16 04:51:42;;;;;;;3.45;0.75;;;8.80;78.10;;;;;;5018173;28;20037;-69
2024/01/16 04:54:07;;;;;;;2.08;1.10;;;8.80;78.10;;;;;;5029332;28;20044;-69
2024/01/16 04:56:33;;;;;;;5.55;0.93;;;8.80;78.10;;;;;;5029744;28;20068;-70
2024/01/16 04:58:58;;;;;;;2.20;0.73;;;8.80;78.20;;;;;;5027693;28;20064;-69
2024/01/16 05:01:25;;;;;;;4.40;1.20;;;8.80;78.20;;;;;;5013838;28;20075;-69
2024/01/16 05:03:50;;;;;;;2.97;0.90;;;8.70;78.10;;;;;;5032250;28;20033;-69
2024/01/16 05:06:16;;;;;;;2.72;0.95;;;8.70;78.10;;;;;;5048394;28;20031;-69
2024/01/16 05:08:42;;;;;;;4.35;0.90;;;8.80;78.10;;;;;;5034278;28;20107;-70
2024/01/16 05:11:09;;;;;;;3.63;1.08;;;8.80;78.10;;;;;;5043258;28;20496;-69
2024/01/16 05:13:35;;;;;;;5.82;1.13;;;8.80;78.10;;;;;;5031901;28;20045;-70
2024/01/16 05:16:00;;;;;;;2.03;0.82;;;8.80;78.10;;;;;;5037983;28;20440;-69
2024/01/16 05:18:26;;;;;;;4.05;1.83;;;8.80;78.10;;;;;;5029770;28;20055;-70
2024/01/16 05:20:52;;;;;;;2.38;1.30;;;8.80;78.10;;;;;;5061274;28;20038;-69
2024/01/16 05:23:17;;;;;;;1.92;0.77;;;8.80;78.10;;;;;;5063337;28;20046;-69
2024/01/16 05:25:43;;;;;;;2.33;0.82;;;8.70;78.10;;;;;;5029669;28;20049;-69
2024/01/16 05:28:10;;;;;;;4.25;1.20;;;8.80;78.10;;;;;;5028669;28;20040;-70
2024/01/16 05:30:35;;;;;;;2.35;0.75;;;8.70;78.00;;;;;;5029910;28;20397;-69
2024/01/16 05:33:01;;;;;;;2.90;1.10;;;8.70;78.10;;;;;;5035900;28;20040;-70
2024/01/16 05:35:28;;;;;;;2.28;0.93;;;8.70;78.10;;;;;;5031614;28;20427;-70
2024/01/16 05:37:55;;;;;;;2.90;0.90;;;8.70;78.00;;;;;;5037046;28;20045;-69
2024/01/16 05:40:21;;;;;;;4.22;1.25;;;8.80;78.10;;;;;;5027496;28;20039;-70
2024/01/16 05:42:48;;;;;;;2.95;0.80;;;8.70;78.00;;;;;;5055309;28;20054;-69
2024/01/16 05:45:14;;;;;;;2.55;0.70;;;8.70;78.10;;;;;;5027384;28;20038;-70
2024/01/16 05:47:40;;;;;;;2.85;1.17;;;8.70;78.00;;;;;;5014964;28;20562;-70
2024/01/16 05:50:06;;;;;;;2.25;0.90;;;8.70;78.00;;;;;;5039927;28;20041;-70
2024/01/16 05:52:32;;;;;;;3.95;1.40;;;8.70;78.00;;;;;;5025718;28;20091;-70
2024/01/16 05:54:59;;;;;;;3.90;0.90;;;8.70;78.00;;;;;;5039113;28;20041;-70
2024/01/16 05:57:25;;;;;;;4.23;1.10;;;8.70;78.00;;;;;;5015382;28;20109;-70
2024/01/16 05:59:51;;;;;;;2.70;1.17;;;8.70;78.00;;;;;;5027115;28;20043;-70
2024/01/16 06:02:17;;;;;;;5.80;1.40;;;8.70;78.00;;;;;;5034227;28;20032;-70
2024/01/16 06:04:43;;;;;;;1.98;0.80;;;8.70;78.00;;;;;;5022188;28;20080;-70
2024/01/16 06:07:08;;;;;;;4.15;0.80;;;8.70;78.00;;;;;;5039673;28;20048;-70
2024/01/16 06:09:39;;;;;;;2.80;0.90;;;8.70;78.10;;;;;;5031925;28;20054;-70
2024/01/16 06:12:06;;;;;;;2.55;1.10;;;8.70;78.10;;;;;;5034899;28;20037;-70
2024/01/16 06:14:32;;;;;;;2.38;0.80;;;8.70;78.00;;;;;;5034484;28;20046;-70
2024/01/16 06:16:58;;;;;;;2.92;1.17;;;8.70;78.00;;;;;;5031654;28;20080;-70
2024/01/16 06:19:24;;;;;;;2.42;0.85;;;8.70;78.10;;;;;;5034167;28;20114;-70
2024/01/16 06:21:50;;;;;;;1.75;1.20;;;8.80;78.20;;;;;;5045626;28;20068;-70
2024/01/16 06:24:15;;;;;;;4.53;1.00;;;8.70;78.10;;;;;;5033984;28;20099;-70
2024/01/16 06:26:42;;;;;;;2.17;0.93;;;8.70;78.00;;;;;;5063863;28;20142;-70
2024/01/16 06:29:08;;;;;;;2.65;0.88;;;8.70;78.00;;;;;;5038640;28;20034;-70
2024/01/16 06:31:34;;;;;;;1.88;0.70;;;8.70;78.00;;;;;;5017894;28;20041;-70
2024/01/16 06:34:00;;;;;;;3.60;1.02;;;8.70;78.10;;;;;;5014758;28;20029;-70
2024/01/16 06:36:26;;;;;;;2.53;1.05;;;8.70;78.10;;;;;;5031791;28;20037;-70
2024/01/16 06:38:51;;;;;;;3.05;0.85;;;8.70;78.10;;;;;;5032269;28;20045;-70
2024/01/16 06:41:17;;;;;;;3.15;1.20;;;8.70;78.10;;;;;;5022818;28;20123;-70
2024/01/16 06:43:43;;;;;;;2.15;1.58;;;8.70;78.10;;;;;;5035145;28;20417;-70
2024/01/16 06:46:09;;;;;;;3.22;1.33;;;8.70;78.00;;;;;;5015823;28;20041;-70
2024/01/16 06:48:38;;;;;;;3.78;1.35;;;8.70;78.10;;;;;;5032150;28;20065;-70
2024/01/16 06:51:04;;;;;;;2.50;1.27;;;8.70;78.10;;;;;;5026785;28;20092;-70
2024/01/16 06:53:30;;;;;;;1.95;1.25;;;8.70;78.00;;;;;;5015547;28;20091;-70
2024/01/16 06:55:56;;;;;;;3.55;1.13;;;8.70;78.10;;;;;;5032508;28;20451;-70
2024/01/16 06:58:21;;;;;;;0.93;0.82;;;8.70;78.10;;;;;;5014167;28;20067;-70
2024/01/16 07:00:47;;;;;;;2.35;1.00;;;8.70;78.10;;;;;;5031978;28;20064;-70
2024/01/16 07:03:13;;;;;;;2.17;1.17;;;8.70;78.10;;;;;;5024783;28;20060;-70
2024/01/16 07:05:43;;;;;;;2.83;0.90;;;8.70;78.10;;;;;;5033230;28;20492;-70
2024/01/16 07:08:09;;;;;;;4.72;1.10;;;8.70;78.20;;;;;;5027148;28;20041;-70
2024/01/16 07:10:35;;;;;;;2.22;0.95;;;8.70;78.20;;;;;;5029185;28;20046;-70
2024/01/16 07:13:01;;;;;;;2.05;1.20;;;8.70;78.20;;;;;;5039592;28;20046;-70
2024/01/16 07:15:27;;;;;;;2.38;1.80;;;8.70;78.20;;;;;;5027072;28;20121;-70
2024/01/16 07:17:53;;;;;;;4.15;1.10;;;8.70;78.20;;;;;;5027079;28;20041;-70
2024/01/16 07:20:19;;;;;;;3.50;1.23;;;8.70;78.20;;;;;;5029939;28;20045;-70
2024/01/16 07:22:45;;;;;;;2.40;1.00;;;8.70;78.10;;;;;;5031556;28;20069;-70
2024/01/16 07:25:11;;;;;;;1.70;1.00;;;8.70;78.20;;;;;;5031032;28;20041;-70
2024/01/16 07:27:37;;;;;;;4.07;1.48;;;8.70;78.20;;;;;;5027970;28;20095;-70
2024/01/16 07:30:06;;;;;;;1.55;1.27;;;8.70;78.20;;;;;;5064691;28;20115;-70
2024/01/16 07:32:32;;;;;;;3.80;1.40;;;8.70;78.20;;;;;;5005770;28;20041;-70
2024/01/16 07:34:58;;;;;;;1.73;1.17;;;8.70;78.10;;;;;;5029712;28;20037;-70
2024/01/16 07:37:23;;;;;;;2.30;1.25;;;8.70;78.20;;;;;;5031484;28;20563;-70
2024/01/16 07:39:49;;;;;;;1.60;0.90;;;8.70;78.20;;;;;;5028250;28;20616;-70
2024/01/16 07:42:15;;;;;;;2.35;1.20;;;8.70;78.20;;;;;;5025760;28;20060;-70
2024/01/16 07:44:40;;;;;;;2.08;1.10;;;8.70;78.20;;;;;;5030464;28;20045;-70
2024/01/16 07:47:06;;;;;;;2.10;1.45;;;8.70;78.20;;;;;;5030176;28;20047;-70
2024/01/16 07:49:32;;;;;;;3.70;1.10;;;8.70;78.20;;;;;;5038213;28;20041;-70
2024/01/16 07:51:57;;;;;;;2.42;1.02;;;8.70;78.20;;;;;;5030997;28;20133;-70
2024/01/16 07:54:24;;;;;;;2.85;1.45;;;8.70;78.20;;;;;;5030041;28;20048;-71
2024/01/16 07:56:49;;;;;;;2.35;1.38;;;8.70;78.20;;;;;;5029902;28;20037;-70
2024/01/16 07:59:15;;;;;;;1.85;1.02;;;8.70;78.20;;;;;;5025819;28;20041;-70
2024/01/16 08:01:40;;;;;;;2.42;1.20;;;8.70;78.30;;;;;;5063248;28;20052;-71
2024/01/16 08:04:06;;;;;;;2.58;1.40;;;8.70;78.30;;;;;;5032505;28;20042;-71
2024/01/16 08:06:32;;;;;;;1.38;1.27;;;8.70;78.20;;;;;;5030290;28;20037;-71
2024/01/16 08:08:58;;;;;;;2.30;1.17;;;8.70;78.20;;;;;;5030052;28;20103;-70
2024/01/16 08:11:24;;;;;;;4.25;1.40;;;8.80;78.30;;;;;;5012784;28;20037;-70
2024/01/16 08:13:50;;;;;;;3.33;1.75;;;8.80;78.20;;;;;;5029018;28;20046;-71
2024/01/16 08:16:15;;;;;;;2.38;1.27;;;8.80;78.20;;;;;;5063085;28;20091;-70
2024/01/16 08:18:41;;;;;;;1.33;1.10;;;8.80;78.20;;;;;;5029864;28;20041;-70
2024/01/16 08:21:07;;;;;;;3.72;1.35;;;8.80;78.10;;;;;;5029759;28;20033;-70
2024/01/16 08:23:34;;;;;;;2.95;1.52;;;8.90;78.10;;;;;;5029348;28;20050;-70
2024/01/16 08:26:00;;;;;;;3.33;1.50;;;8.90;78.10;;;;;;5013032;28;20045;-70
2024/01/16 08:28:27;;;;;;;1.83;1.50;;;8.90;78.00;;;;;;5030042;28;20037;-71
2024/01/16 08:30:52;;;;;;;2.28;1.60;;;8.90;78.00;;;;;;5063083;28;20041;-71
2024/01/16 08:33:18;;;;;;;1.92;1.52;;;8.90;77.90;;;;;;5033747;28;20037;-70
2024/01/16 08:35:44;;;;;;;2.95;1.55;;;8.90;78.00;;;;;;5030344;28;20452;-70
2024/01/16 08:38:10;;;;;;;3.58;2.08;;;8.90;77.90;;;;;;5029927;28;20041;-69
2024/01/16 08:40:36;;;;;;;2.55;1.50;;;9.00;78.00;;;;;;5012995;28;20052;-70
2024/01/16 08:43:01;;;;;;;1.67;1.58;;;9.00;78.00;;;;;;5029669;28;20033;-70
2024/01/16 08:45:27;;;;;;;2.63;1.52;;;9.00;77.90;;;;;;5028882;28;20029;-70
2024/01/16 08:47:53;;;;;;;2.55;2.10;;;9.00;77.90;;;;;;5028351;28;20048;-70
2024/01/16 08:50:18;;;;;;;3.40;1.85;;;9.00;77.80;;;;;;5029121;28;20454;-71
2024/01/16 08:52:44;;;;;;;2.55;1.85;;;9.00;77.80;;;;;;5062746;28;20041;-71
2024/01/16 08:55:10;;;;;;;2.85;1.60;;;9.10;77.90;;;;;;5062671;28;20051;-71
2024/01/16 08:57:37;;;;;;;4.38;1.80;;;9.10;77.90;;;;;;5029457;28;20037;-70
2024/01/16 09:00:08;;;;;;;2.27;1.60;;;9.10;77.90;;;;;;5027958;28;20572;-70
2024/01/16 09:02:35;;;;;;;3.35;1.85;;;9.10;77.90;;;;;;5031366;28;20048;-70
2024/01/16 09:05:00;;;;;;;2.75;1.90;;;9.10;77.90;;;;;;5037130;28;20481;-71
2024/01/16 09:07:27;;;;;;;2.70;1.98;;;9.10;78.00;;;;;;5028967;28;20039;-69
2024/01/16 09:09:53;;;;;;;3.20;1.60;;;9.10;77.90;;;;;;5028107;28;20068;-70
2024/01/16 09:12:19;;;;;;;2.78;2.00;;;9.10;77.90;;;;;;5028758;28;20049;-70
2024/01/16 09:14:45;;;;;;;2.70;1.67;;;9.10;78.70;;;;;;5029625;28;20211;-71
2024/01/16 09:17:11;;;;;;;4.03;2.03;;;9.10;77.90;;;;;;5028417;28;20512;-69
2024/01/16 09:19:36;;;;;;;3.40;1.90;;;9.10;77.90;;;;;;5028761;28;20040;-70
2024/01/16 09:22:03;;;;;;;2.38;1.67;;;9.20;77.90;;;;;;5028241;28;20433;-69
2024/01/16 09:24:29;;;;;;;2.00;1.55;;;9.20;77.90;;;;;;5032073;28;20124;-69
2024/01/16 09:26:55;;;;;;;3.97;1.95;;;9.20;77.90;;;;;;5032631;28;20109;-69
2024/01/16 09:29:22;;;;;;;3.08;1.70;;;9.20;78.00;;;;;;5064897;28;20389;-70
2024/01/16 09:31:48;;;;;;;2.47;1.90;;;9.20;77.90;;;;;;5033373;28;20037;-69
2024/01/16 09:34:14;;;;;;;2.90;1.83;;;9.20;77.90;;;;;;5032901;28;20071;-70
2024/01/16 09:36:40;;;;;;;3.40;1.52;;;9.20;77.90;;;;;;5016313;28;20045;-69
2024/01/16 09:39:10;;;;;;;1.85;1.60;;;9.20;77.90;;;;;;5033000;28;20129;-70
2024/01/16 09:41:41;;;;;;;3.78;2.00;;;9.20;78.00;;;;;;5033422;28;20056;-69
2024/01/16 09:44:07;;;;;;;2.05;1.67;;;9.20;78.00;;;;;;5032313;28;20103;-69
2024/01/16 09:46:35;;;;;;;3.08;2.03;;;9.20;78.00;;;;;;5029664;28;20058;-69
2024/01/16 09:49:04;;;;;;;2.92;2.03;;;9.30;77.90;;;;;;5032189;28;20116;-69
2024/01/16 09:51:30;;;;;;;2.42;1.85;;;9.30;77.90;;;;;;5066004;28;20044;-69
2024/01/16 09:53:56;;;;;;;3.88;2.00;;;9.20;77.90;;;;;;5045844;28;20045;-69
2024/01/16 09:56:26;;;;;;;3.97;2.00;;;9.20;78.00;;;;;;5027597;28;20060;-69
2024/01/16 09:58:58;;;;;;;1.95;1.80;;;9.30;77.90;;;;;;5032289;28;20037;-69
2024/01/16 10:01:27;;;;;;;1.92;1.83;;;9.30;77.90;;;;;;5033207;28;20045;-69
2024/01/16 10:03:52;;;;;;;4.00;2.10;;;9.30;78.00;;;;;;5030859;28;20041;-69
2024/01/16 10:06:20;;;;;;;2.20;2.00;;;9.30;77.90;;;;;;5012928;28;20049;-69
2024/01/16 10:08:46;;;;;;;1.93;1.60;;;9.30;77.90;;;;;;5030684;28;21412;-69
2024/01/16 10:11:12;;;;;;;3.85;1.92;;;9.30;77.90;;;;;;5016072;28;20277;-68
2024/01/16 10:13:38;;;;;;;2.60;1.65;;;9.30;77.90;;;;;;5024175;28;20102;-69
2024/01/16 10:16:03;;;;;;;2.92;1.65;;;9.30;77.90;;;;;;5038572;28;20304;-68
2024/01/16 10:18:30;;;;;;;2.20;1.80;;;9.30;77.90;;;;;;5015492;28;20276;-69
2024/01/16 10:20:56;;;;;;;4.07;1.60;;;9.30;77.90;;;;;;5037827;28;20124;-68
2024/01/16 10:23:26;;;;;;;2.35;1.50;;;9.30;77.90;;;;;;5043371;28;20067;-70
2024/01/16 10:26:08;;;;;;;3.05;2.00;;;9.30;77.90;;;;;;5038752;28;20094;-70
2024/01/16 10:28:34;;;;;;;2.92;1.98;;;9.40;78.00;;;;;;5030828;28;20069;-70
2024/01/16 10:31:04;;;;;;;2.95;1.83;;;9.40;78.00;;;;;;5023832;28;20048;-69
2024/01/16 10:33:30;;;;;;;4.25;2.00;;;9.40;78.00;;;;;;5033867;28;20454;-70
2024/01/16 10:36:20;;;;;;;1.83;1.58;;;9.40;77.90;;;;;;5039000;28;20064;-70
2024/01/16 10:38:46;;;;;;;4.18;1.70;;;9.40;78.00;;;;;;5032009;28;20046;-68
2024/01/16 10:41:14;;;;;;;2.45;1.52;;;9.40;77.90;;;;;;5031805;28;20053;-69
2024/01/16 10:43:40;;;;;;;2.38;1.60;;;9.40;77.90;;;;;;5031949;28;20555;-70
2024/01/16 10:46:16;;;;;;;1.45;1.33;;;9.40;77.90;;;;;;5032215;28;20040;-69
2024/01/16 10:48:44;;;;;;;3.58;2.20;;;9.40;77.90;;;;;;5027379;28;20289;-69
2024/01/16 10:51:19;;;;;;;1.60;1.30;;;9.40;77.90;;;;;;5035273;28;20038;-70
2024/01/16 10:53:46;;;;;;;3.17;1.40;;;9.40;77.90;;;;;;5031883;28;20396;-70
2024/01/16 10:56:13;;;;;;;2.53;1.38;;;9.40;77.90;;;;;;5040313;28;20093;-71
2024/01/16 10:58:42;;;;;;;3.20;1.60;;;9.40;77.90;;;;;;5035969;28;20049;-70
2024/01/16 11:01:16;;;;;;;1.70;1.08;;;9.40;77.90;;;;;;5030837;28;20448;-70
2024/01/16 11:03:50;;;;;;;3.00;1.30;;;9.40;78.00;;;;;;5033635;28;20111;-70
2024/01/16 11:06:17;;;;;;;1.73;1.10;;;9.40;77.90;;;;;;5033445;28;20038;-71
2024/01/16 11:08:47;;;;;;;1.67;1.20;;;9.40;77.90;;;;;;5031082;28;20048;-70
2024/01/16 11:11:13;;;;;;;1.80;1.30;;;9.50;77.90;;;;;;5032188;28;20037;-70
2024/01/16 11:13:41;;;;;;;1.27;1.10;;;9.50;78.00;;;;;;5040485;28;20033;-71
2024/01/16 11:16:10;;;;;;;1.35;0.95;;;9.50;78.00;;;;;;5067252;28;20052;-71
2024/01/16 11:18:36;;;;;;;2.85;1.13;;;9.50;77.90;;;;;;5031488;28;20057;-71
2024/01/16 11:21:05;;;;;;;3.10;1.23;;;9.50;77.90;;;;;;5030982;28;20608;-70
2024/01/16 11:23:31;;;;;;;4.47;1.42;;;9.50;77.90;;;;;;5030501;28;20045;-70
2024/01/16 11:25:56;;;;;;;2.25;1.30;;;9.50;77.90;;;;;;5031386;28;20102;-70
2024/01/16 11:28:31;;;;;;;2.53;1.33;;;9.50;77.90;;;;;;5015010;28;20548;-69
2024/01/16 11:30:56;;;;;;;4.90;1.48;;;9.50;77.90;;;;;;5031811;28;20041;-70
2024/01/16 11:33:31;;;;;;;3.78;1.50;;;9.50;77.80;;;;;;5014158;28;20029;-70
2024/01/16 11:35:57;;;;;;;2.30;1.48;;;9.50;77.80;;;;;;5014556;28;20041;-67
2024/01/16 11:38:26;;;;;;;4.88;1.65;;;9.50;77.80;;;;;;5031358;28;20522;-70
2024/01/16 11:40:55;;;;;;;4.45;0.95;;;9.50;77.80;;;;;;5032537;28;20401;-69
2024/01/16 11:43:36;;;;;;;2.85;1.30;;;9.50;77.80;;;;;;5030498;28;20613;-69
2024/01/16 11:46:07;;;;;;;3.13;1.10;;;9.50;77.70;;;;;;5030230;28;20103;-69
2024/01/16 11:48:33;;;;;;;3.63;1.40;;;9.50;77.70;;;;;;5030953;28;20041;-68
2024/01/16 11:50:59;;;;;;;4.18;1.30;;;9.50;77.70;;;;;;5001586;28;20045;-69
2024/01/16 11:53:43;;;;;;;1.10;0.98;;;9.50;77.70;;;;;;5030899;28;20378;-69
2024/01/16 11:56:28;;;;;;;3.00;1.00;;;9.50;77.60;;;;;;5017706;28;20045;-69
2024/01/16 11:59:09;;;;;;;2.17;1.10;;;9.50;77.70;;;;;;5030107;28;20041;-69
2024/01/16 12:01:35;;;;;;;5.88;1.30;;;9.40;77.70;;;;;;5030819;28;20438;-69
2024/01/16 12:04:05;;;;;;;2.47;1.17;;;9.40;77.80;;;;;;5029789;28;20046;-69
2024/01/16 12:06:31;;;;;;;3.67;1.40;;;9.50;77.90;;;;;;5030422;28;20045;-69
2024/01/16 12:09:17;;;;;;;3.45;1.23;;;9.40;77.90;;;;;;5030726;28;20045;-69
2024/01/16 12:11:55;;;;;;;2.17;1.15;;;9.40;77.90;;;;;;5030545;28;20073;-69
2024/01/16 12:14:20;;;;;;;3.15;1.33;;;9.40;77.90;;;;;;5001343;28;20052;-69
2024/01/16 12:16:46;;;;;;;0.82;0.80;;;9.40;78.00;;;;;;5030547;28;20045;-69
2024/01/16 12:19:13;;;;;;;4.35;1.38;;;9.30;77.90;;;;;;5014362;28;20448;-69
2024/01/16 12:21:46;;;;;;;2.43;1.27;;;9.40;78.10;;;;;;5030376;28;20049;-68
2024/01/16 12:24:11;;;;;;;3.20;1.40;;;9.30;78.00;;;;;;5017358;28;20304;-69
2024/01/16 12:26:39;;;;;;;2.42;1.33;;;9.30;78.80;;;;;;5030412;28;20064;-69
2024/01/16 12:29:05;;;;;;;3.03;1.30;;;9.30;78.10;;;;;;5030604;28;20417;-69
2024/01/16 12:31:31;;;;;;;3.60;1.33;;;9.30;78.20;;;;;;5030431;28;20052;-68
2024/01/16 12:34:10;;;;;;;3.17;1.40;;;9.30;78.20;;;;;;5013896;28;20489;-68
2024/01/16 12:36:36;;;;;;;3.33;1.52;;;9.30;78.20;;;;;;5024121;28;20183;-68
2024/01/16 12:39:02;;;;;;;3.85;1.60;;;9.20;78.20;;;;;;5030430;28;20041;-68
2024/01/16 12:41:34;;;;;;;3.92;1.80;;;9.20;78.20;;;;;;5030065;28;20049;-68
2024/01/16 12:44:00;;;;;;;2.92;1.45;;;9.20;78.30;;;;;;5029986;28;20041;-68
2024/01/16 12:46:26;;;;;;;3.63;1.85;;;9.20;78.20;;;;;;5029248;28;20048;-68
2024/01/16 12:48:51;;;;;;;3.38;1.88;;;9.20;78.30;;;;;;5030173;28;20113;-68
2024/01/16 12:51:24;;;;;;;4.70;2.47;;;9.20;78.30;;;;;;5013975;28;20033;-68
2024/01/16 12:53:49;;;;;;;2.40;1.70;;;9.20;78.30;;;;;;5029588;28;20133;-68
2024/01/16 12:56:20;;;;;;;3.10;1.70;;;9.20;78.30;;;;;;5029816;28;20057;-68